KTTD/TTD METAR and TAF weather

Enter ICAO airport designator
Station Type Date Time Source
KTTD METAR 2020/09/19 01:53 UTC NOAA

KTTD 190153Z 00000KT 10SM FU FEW032 17/13 A2997 RMK AO2 SLP149 T01670133


Station Type Date Time Source
KTTD Decoded METAR 2020/09/19 01:53 UTC NOAA

PORTLAND-TROUTDALE AIRPORT, OR, United States (KTTD) 45-33N 122-25W 14M
Sep 18, 2020 - 09:53 PM EDT / 2020.09.19 0153 UTC
Wind: Calm:0
Visibility: 10 mile(s):0
Sky conditions: mostly clear
Weather: smoke
Temperature: 62.1 F (16.7 C)
Dew Point: 55.9 F (13.3 C)
Relative Humidity: 80%
Pressure (altimeter): 29.97 in. Hg (1014 hPa)
ob: KTTD 190153Z 00000KT 10SM FU FEW032 17/13 A2997 RMK AO2 SLP149 T01670133
cycle: 2

Station Type Date Time Source
KTTD TAF 2020/09/18 18:39 UTC NOAA

TAF KTTD 181736Z 1818/1918 00000KT 4SM -RA BR FU BKN035
FM182100 VRB03KT 3SM -RA VCTS BKN025CB
FM190300 VRB03KT 4SM -SHRA BKN029
FM190600 VRB03KT 5SM -SHRA BKN025
FM191300 VRB04KT 6SM -SHRA BKN015

Example: see airport list